createdAt,value
2023-05-23T00:00:15.392Z,31.80
2023-05-23T00:02:42.884Z,31.90
2023-05-23T00:05:09.610Z,37.53
2023-05-23T00:07:36.314Z,34.40
2023-05-23T00:10:03.397Z,34.23
2023-05-23T00:12:30.065Z,34.33
2023-05-23T00:14:56.730Z,32.00
2023-05-23T00:17:25.609Z,32.93
2023-05-23T00:19:52.931Z,32.10
2023-05-23T00:22:19.724Z,30.83
2023-05-23T00:24:46.462Z,31.80
2023-05-23T00:27:13.321Z,34.20
2023-05-23T00:29:39.968Z,33.53
2023-05-23T00:32:06.641Z,30.20
2023-05-23T00:34:34.222Z,33.70
2023-05-23T00:37:02.167Z,33.37
2023-05-23T00:39:28.945Z,31.97
2023-05-23T00:41:56.277Z,31.33
2023-05-23T00:44:23.062Z,34.43
2023-05-23T00:46:54.674Z,31.00
2023-05-23T00:49:21.828Z,33.73
2023-05-23T00:51:49.796Z,27.73
2023-05-23T00:54:21.536Z,31.33
2023-05-23T00:56:48.698Z,31.83
2023-05-23T00:59:15.916Z,31.87
2023-05-23T01:01:47.036Z,35.07
2023-05-23T01:04:16.506Z,33.00
2023-05-23T01:06:47.107Z,34.47
2023-05-23T01:09:18.073Z,36.23
2023-05-23T01:12:11.012Z,40.93
2023-05-23T01:15:09.937Z,42.73
2023-05-23T01:17:50.726Z,37.93
2023-05-23T01:20:23.044Z,39.07
2023-05-23T01:23:01.744Z,40.63
2023-05-23T01:25:59.319Z,49.43
2023-05-23T01:28:37.231Z,43.77
2023-05-23T01:31:06.129Z,44.70
2023-05-23T01:33:33.618Z,40.33
2023-05-23T01:36:03.603Z,41.80
2023-05-23T01:38:30.635Z,40.20
2023-05-23T01:40:57.578Z,40.63
2023-05-23T01:43:25.457Z,43.40
2023-05-23T01:45:54.201Z,46.20
2023-05-23T01:48:23.083Z,44.00
2023-05-23T01:50:50.505Z,46.47
2023-05-23T01:53:22.394Z,50.80
2023-05-23T01:55:49.441Z,47.90
2023-05-23T01:58:16.125Z,42.00
2023-05-23T02:00:42.870Z,43.00
2023-05-23T02:03:09.786Z,39.50
2023-05-23T02:05:36.500Z,38.53
2023-05-23T02:08:03.545Z,41.37
2023-05-23T02:10:30.343Z,38.33
2023-05-23T02:12:56.988Z,40.23
2023-05-23T02:15:23.760Z,43.60
2023-05-23T02:17:51.475Z,40.50
2023-05-23T02:20:18.912Z,38.23
2023-05-23T02:22:46.319Z,36.50
2023-05-23T02:25:13.113Z,36.37
2023-05-23T02:27:39.704Z,39.07
2023-05-23T02:30:07.052Z,38.33
2023-05-23T02:32:33.812Z,33.03
2023-05-23T02:35:00.675Z,35.40
2023-05-23T02:37:27.340Z,32.27
2023-05-23T02:39:53.936Z,29.77
2023-05-23T02:42:20.713Z,29.80
2023-05-23T02:44:47.385Z,30.90
2023-05-23T02:47:14.067Z,31.47
2023-05-23T02:49:40.756Z,27.80
2023-05-23T02:52:07.791Z,27.93
2023-05-23T02:54:34.543Z,29.90
2023-05-23T02:57:01.397Z,28.23
2023-05-23T02:59:28.030Z,28.83
2023-05-23T03:02:03.376Z,27.37
2023-05-23T03:04:30.173Z,27.27
2023-05-23T03:06:59.757Z,26.10
2023-05-23T03:09:26.997Z,28.60
2023-05-23T03:11:53.797Z,29.40
2023-05-23T03:14:20.808Z,28.97
2023-05-23T03:16:47.721Z,28.40
2023-05-23T03:19:14.734Z,28.60
2023-05-23T03:21:41.819Z,28.30
2023-05-23T03:24:08.774Z,30.80
2023-05-23T03:26:36.556Z,30.20
2023-05-23T03:29:03.404Z,31.23
2023-05-23T03:31:30.559Z,26.43
2023-05-23T03:33:57.375Z,28.90
2023-05-23T03:36:26.121Z,30.50
2023-05-23T03:38:53.467Z,27.53
2023-05-23T03:41:20.322Z,29.30
2023-05-23T03:43:47.266Z,29.00
2023-05-23T03:46:14.165Z,28.60
2023-05-23T03:48:40.971Z,28.73
2023-05-23T03:51:07.727Z,26.43
2023-05-23T03:53:36.419Z,24.83
2023-05-23T03:56:03.432Z,25.63
2023-05-23T03:58:30.335Z,26.57
2023-05-23T04:00:58.767Z,25.27
2023-05-23T04:03:27.407Z,25.30
2023-05-23T04:05:54.258Z,32.43
2023-05-23T04:08:22.266Z,25.03
2023-05-23T04:10:49.162Z,23.00
2023-05-23T04:13:15.999Z,26.47
2023-05-23T04:15:43.064Z,24.63
2023-05-23T04:18:10.161Z,24.30
2023-05-23T04:20:37.282Z,23.10
2023-05-23T04:23:04.059Z,23.83
2023-05-23T04:25:31.229Z,24.23
2023-05-23T04:27:57.873Z,25.23
2023-05-23T04:30:24.542Z,25.73
2023-05-23T04:32:52.202Z,26.67
2023-05-23T04:35:18.969Z,23.40
2023-05-23T04:37:46.952Z,24.00
2023-05-23T04:40:14.325Z,22.60
2023-05-23T04:42:44.484Z,24.53
2023-05-23T04:45:11.544Z,30.13
2023-05-23T04:47:38.232Z,24.10
2023-05-23T04:50:05.502Z,24.73
2023-05-23T04:52:33.873Z,22.53
2023-05-23T04:55:01.292Z,31.40
2023-05-23T04:57:28.105Z,22.20
2023-05-23T04:59:54.747Z,23.50
2023-05-23T05:02:21.655Z,23.43
2023-05-23T05:04:48.508Z,22.90
2023-05-23T05:07:16.113Z,23.13
2023-05-23T05:09:42.803Z,24.80
2023-05-23T05:12:09.486Z,20.87
2023-05-23T05:14:37.310Z,21.67
2023-05-23T05:17:04.284Z,22.87
2023-05-23T05:19:31.338Z,23.70
2023-05-23T05:22:00.051Z,22.30
2023-05-23T05:24:27.772Z,21.10
2023-05-23T05:26:54.771Z,25.23
2023-05-23T05:29:21.945Z,23.50
2023-05-23T05:31:48.699Z,24.83
2023-05-23T05:34:15.850Z,22.57
2023-05-23T05:36:48.414Z,23.47
2023-05-23T05:39:15.614Z,27.60
2023-05-23T05:41:42.239Z,25.97
2023-05-23T05:44:09.847Z,26.27
2023-05-23T05:46:36.565Z,28.53
2023-05-23T05:49:03.344Z,28.50
2023-05-23T05:51:30.024Z,32.10
2023-05-23T05:53:56.690Z,29.20
2023-05-23T05:56:23.376Z,33.93
2023-05-23T05:58:50.103Z,36.07
2023-05-23T06:01:17.551Z,33.87
2023-05-23T06:03:44.688Z,33.97
2023-05-23T06:06:11.903Z,35.97
2023-05-23T06:08:38.549Z,32.90
2023-05-23T06:11:05.485Z,32.20
2023-05-23T06:13:32.177Z,33.67
2023-05-23T06:15:58.852Z,38.03
2023-05-23T06:18:25.559Z,40.00
2023-05-23T06:20:52.183Z,33.50
2023-05-23T06:23:18.953Z,35.50
2023-05-23T06:25:45.642Z,31.30
2023-05-23T06:28:12.363Z,31.97
2023-05-23T06:30:39.233Z,31.90
2023-05-23T06:33:06.242Z,30.17
2023-05-23T06:35:32.893Z,31.37
2023-05-23T06:37:59.553Z,32.20
2023-05-23T06:40:26.304Z,30.23
2023-05-23T06:42:52.916Z,33.33
2023-05-23T06:45:19.584Z,35.87
2023-05-23T06:47:48.137Z,34.23
2023-05-23T06:50:15.037Z,34.07
2023-05-23T06:52:42.887Z,34.10
2023-05-23T06:55:09.945Z,32.57
2023-05-23T06:57:36.563Z,37.17
2023-05-23T07:00:03.484Z,31.30
2023-05-23T07:02:30.219Z,38.60
2023-05-23T07:04:56.952Z,35.37
2023-05-23T07:07:23.632Z,40.83
2023-05-23T07:09:50.430Z,36.30
2023-05-23T07:12:17.150Z,40.13
2023-05-23T07:14:43.993Z,41.43
2023-05-23T07:17:10.752Z,42.00
2023-05-23T07:19:38.254Z,42.73
2023-05-23T07:22:05.071Z,38.10
2023-05-23T07:24:31.739Z,35.70
2023-05-23T07:26:58.457Z,37.50
2023-05-23T07:29:25.333Z,40.50
2023-05-23T07:31:52.111Z,40.17
2023-05-23T07:34:18.842Z,38.37
2023-05-23T07:36:45.508Z,45.37
2023-05-23T07:39:12.337Z,40.87
2023-05-23T07:41:38.973Z,36.67
2023-05-23T07:44:06.998Z,41.17
2023-05-23T07:46:33.716Z,37.23
2023-05-23T07:49:00.576Z,40.33
2023-05-23T07:51:27.236Z,41.17
2023-05-23T07:53:53.996Z,39.17
2023-05-23T07:56:21.090Z,41.73
2023-05-23T07:58:47.747Z,37.90
2023-05-23T08:01:14.455Z,43.13
2023-05-23T08:03:41.284Z,41.93
2023-05-23T08:06:08.910Z,41.07
2023-05-23T08:08:36.365Z,41.30
2023-05-23T08:11:03.276Z,43.80
2023-05-23T08:13:31.481Z,41.90
2023-05-23T08:15:58.281Z,47.83
2023-05-23T08:18:25.043Z,41.10
2023-05-23T08:20:51.960Z,41.43
2023-05-23T08:23:18.888Z,45.17
2023-05-23T08:25:45.576Z,41.87
2023-05-23T08:28:12.315Z,46.20
2023-05-23T08:30:40.465Z,45.03
2023-05-23T08:33:07.417Z,41.23
2023-05-23T08:35:36.275Z,41.73
2023-05-23T08:38:07.539Z,38.97
2023-05-23T08:40:36.413Z,45.47
2023-05-23T08:43:03.316Z,44.10
2023-05-23T08:45:31.009Z,52.90
2023-05-23T08:48:00.838Z,58.10
2023-05-23T08:50:29.910Z,50.63
2023-05-23T08:52:59.151Z,50.07
2023-05-23T08:55:30.196Z,56.97
2023-05-23T08:58:00.195Z,50.77
2023-05-23T09:00:28.035Z,51.77
2023-05-23T09:02:55.031Z,47.87
2023-05-23T09:05:22.028Z,38.27
2023-05-23T09:07:51.780Z,32.40
2023-05-23T09:10:22.647Z,31.07
2023-05-23T09:12:50.029Z,35.30
2023-05-23T09:15:17.481Z,34.07
2023-05-23T09:17:44.960Z,34.10
2023-05-23T09:20:14.290Z,30.13
2023-05-23T09:22:41.711Z,27.93
2023-05-23T09:25:08.978Z,29.27
2023-05-23T09:27:36.334Z,31.70
2023-05-23T09:30:07.470Z,31.90
2023-05-23T09:32:34.227Z,36.43
2023-05-23T09:35:05.671Z,24.10
2023-05-23T09:37:34.971Z,23.67
2023-05-23T09:40:10.166Z,27.23
2023-05-23T09:42:43.589Z,25.37
2023-05-23T09:45:11.201Z,22.70
2023-05-23T09:47:37.984Z,24.40
2023-05-23T09:50:05.180Z,24.00
2023-05-23T09:52:38.711Z,25.90
2023-05-23T09:55:06.693Z,25.20
2023-05-23T09:57:40.135Z,25.20
2023-05-23T10:00:12.759Z,27.47
2023-05-23T10:03:12.851Z,25.47
2023-05-23T10:05:49.076Z,27.43
2023-05-23T10:08:31.677Z,24.27
2023-05-23T10:10:58.303Z,20.00
2023-05-23T10:13:29.271Z,22.63
2023-05-23T10:16:12.427Z,27.20
2023-05-23T10:18:43.739Z,23.63
2023-05-23T10:21:15.589Z,21.33
2023-05-23T10:23:44.558Z,26.07
2023-05-23T10:26:11.855Z,24.67
2023-05-23T10:28:40.252Z,22.17
2023-05-23T10:31:07.503Z,26.33
2023-05-23T10:33:41.189Z,20.00
2023-05-23T10:36:14.877Z,24.10
2023-05-23T10:38:51.821Z,21.90
2023-05-23T10:41:28.980Z,26.30
2023-05-23T10:44:01.715Z,20.93
2023-05-23T10:46:52.888Z,20.67
2023-05-23T10:49:19.958Z,25.57
2023-05-23T10:51:51.925Z,24.03
2023-05-23T10:54:22.677Z,27.43
2023-05-23T10:57:04.319Z,30.00
2023-05-23T10:59:31.244Z,31.73
2023-05-23T11:01:59.818Z,31.33
2023-05-23T11:04:28.157Z,29.17
2023-05-23T11:06:57.025Z,29.00
2023-05-23T11:09:23.866Z,34.00
2023-05-23T11:11:55.085Z,34.93
2023-05-23T11:14:32.431Z,34.60
2023-05-23T11:17:12.200Z,34.23
2023-05-23T11:19:39.728Z,33.97
2023-05-23T11:22:09.914Z,34.20
2023-05-23T11:24:53.696Z,35.47
2023-05-23T11:27:38.409Z,35.00
2023-05-23T11:30:17.617Z,36.27
2023-05-23T11:32:55.814Z,33.37
2023-05-23T11:35:22.942Z,36.37
2023-05-23T11:37:49.918Z,36.77
2023-05-23T11:40:30.718Z,41.73
2023-05-23T11:42:58.139Z,41.00
2023-05-23T11:45:26.204Z,38.63
2023-05-23T11:47:53.206Z,39.90
2023-05-23T11:50:24.349Z,45.10
2023-05-23T11:52:51.950Z,39.63
2023-05-23T11:55:23.077Z,43.40
2023-05-23T11:57:51.460Z,33.93
2023-05-23T12:00:19.225Z,31.30
2023-05-23T12:02:47.820Z,35.70
2023-05-23T12:05:15.506Z,34.17
2023-05-23T12:07:47.614Z,32.97
2023-05-23T12:10:16.742Z,37.07
2023-05-23T12:12:44.466Z,34.37
2023-05-23T12:15:12.405Z,35.23
2023-05-23T12:17:40.101Z,34.60
2023-05-23T12:20:07.820Z,39.43
2023-05-23T12:22:34.857Z,40.10
2023-05-23T12:25:02.708Z,35.23
2023-05-23T12:27:31.398Z,37.37
2023-05-23T12:30:08.027Z,40.83
2023-05-23T12:32:35.670Z,34.70
2023-05-23T12:35:03.913Z,33.43
2023-05-23T12:37:30.782Z,35.00
2023-05-23T12:39:57.616Z,33.43
2023-05-23T12:42:24.240Z,37.03
2023-05-23T12:44:54.097Z,29.87
2023-05-23T12:47:20.984Z,24.37
2023-05-23T12:49:48.040Z,22.43
2023-05-23T12:52:14.724Z,24.33
2023-05-23T12:54:41.374Z,21.87
2023-05-23T12:57:08.031Z,20.90
2023-05-23T12:59:34.673Z,31.87
2023-05-23T13:02:02.607Z,20.93
2023-05-23T13:04:32.024Z,19.90
2023-05-23T13:06:59.173Z,18.97
2023-05-23T13:09:25.845Z,23.07
2023-05-23T13:11:52.710Z,20.80
2023-05-23T13:14:19.512Z,22.97
2023-05-23T13:16:46.186Z,25.47
2023-05-23T13:19:12.894Z,28.50
2023-05-23T13:21:39.781Z,28.33
2023-05-23T13:24:06.928Z,31.13
2023-05-23T13:26:33.618Z,31.73
2023-05-23T13:29:00.669Z,30.57
2023-05-23T13:31:27.393Z,31.93
2023-05-23T13:33:54.266Z,31.67
2023-05-23T13:36:21.111Z,33.07
2023-05-23T13:38:47.794Z,36.23
2023-05-23T13:41:14.445Z,29.83
2023-05-23T13:43:44.061Z,31.47
2023-05-23T13:46:10.842Z,32.67
2023-05-23T13:48:37.563Z,30.27
2023-05-23T13:51:05.692Z,27.43
2023-05-23T13:53:32.722Z,25.30
2023-05-23T13:55:59.398Z,27.43
2023-05-23T13:58:26.218Z,32.03
2023-05-23T14:00:53.139Z,21.57
2023-05-23T14:03:19.836Z,20.57
2023-05-23T14:05:46.641Z,21.67
2023-05-23T14:08:14.056Z,22.50
2023-05-23T14:10:41.547Z,21.37
2023-05-23T14:13:08.560Z,22.40
2023-05-23T14:15:35.796Z,26.30
2023-05-23T14:18:02.562Z,18.57
2023-05-23T14:20:29.941Z,24.07
2023-05-23T14:22:56.635Z,21.60
2023-05-23T14:25:23.416Z,20.20
2023-05-23T14:27:50.086Z,22.53
2023-05-23T14:30:16.821Z,21.10
2023-05-23T14:32:43.561Z,22.27
2023-05-23T14:35:11.230Z,17.37
2023-05-23T14:37:38.357Z,19.17
2023-05-23T14:40:06.756Z,18.57
2023-05-23T14:42:33.452Z,18.90
2023-05-23T14:45:00.258Z,22.87
2023-05-23T14:47:27.313Z,23.93
2023-05-23T14:49:54.010Z,20.77
2023-05-23T14:52:20.886Z,20.40
2023-05-23T14:54:47.569Z,19.77
2023-05-23T14:57:14.409Z,20.43
2023-05-23T14:59:41.148Z,24.57
2023-05-23T15:02:08.406Z,21.00
2023-05-23T15:04:35.960Z,18.47
2023-05-23T15:07:02.798Z,18.23
2023-05-23T15:09:29.471Z,22.20
2023-05-23T15:11:56.240Z,21.70
2023-05-23T15:14:23.274Z,21.53
2023-05-23T15:16:50.387Z,20.93
2023-05-23T15:19:17.235Z,20.20
2023-05-23T15:21:50.440Z,20.03
2023-05-23T15:24:18.074Z,23.90
2023-05-23T15:26:44.775Z,20.40
2023-05-23T15:29:12.439Z,19.00
2023-05-23T15:31:39.224Z,19.23
2023-05-23T15:34:05.944Z,20.30
2023-05-23T15:36:32.755Z,20.40
2023-05-23T15:38:59.482Z,23.37
2023-05-23T15:41:26.531Z,19.80
2023-05-23T15:43:53.418Z,18.70
2023-05-23T15:46:20.325Z,21.97
2023-05-23T15:48:47.005Z,16.83
2023-05-23T15:51:13.855Z,17.33
2023-05-23T15:53:59.219Z,20.27
2023-05-23T15:56:27.971Z,28.27
2023-05-23T15:58:55.088Z,19.40
2023-05-23T16:01:21.984Z,18.73
2023-05-23T16:03:49.398Z,17.50
2023-05-23T16:06:16.233Z,19.30
2023-05-23T16:08:42.977Z,19.63
2023-05-23T16:11:09.666Z,17.50
2023-05-23T16:13:36.345Z,17.40
2023-05-23T16:16:04.356Z,24.03
2023-05-23T16:18:31.153Z,19.30
2023-05-23T16:20:57.962Z,21.30
2023-05-23T16:23:24.627Z,18.50
2023-05-23T16:25:51.269Z,18.17
2023-05-23T16:28:18.243Z,22.10
2023-05-23T16:30:44.992Z,25.50
2023-05-23T16:33:11.836Z,19.57
2023-05-23T16:35:38.676Z,16.60
2023-05-23T16:38:05.748Z,18.13
2023-05-23T16:40:32.432Z,20.67
2023-05-23T16:42:59.256Z,18.60
2023-05-23T16:45:26.008Z,20.53
2023-05-23T16:47:52.684Z,22.23
2023-05-23T16:50:19.345Z,18.27
2023-05-23T16:52:46.221Z,18.50
2023-05-23T16:55:13.875Z,19.17
2023-05-23T16:57:40.662Z,19.20
2023-05-23T17:00:09.138Z,16.83
2023-05-23T17:02:36.172Z,16.07
2023-05-23T17:05:03.767Z,19.70
2023-05-23T17:07:30.864Z,19.13
2023-05-23T17:09:57.546Z,21.40
2023-05-23T17:12:25.303Z,28.90
2023-05-23T17:14:52.500Z,22.60
2023-05-23T17:17:19.155Z,22.67
2023-05-23T17:19:46.299Z,23.10
2023-05-23T17:22:13.237Z,20.30
2023-05-23T17:24:39.971Z,20.87
2023-05-23T17:27:06.652Z,19.17
2023-05-23T17:29:33.431Z,19.43
2023-05-23T17:32:00.192Z,17.63
2023-05-23T17:34:26.898Z,18.80
2023-05-23T17:36:53.628Z,21.10
2023-05-23T17:39:20.435Z,21.93
2023-05-23T17:41:48.384Z,18.37
2023-05-23T17:44:15.049Z,20.93
2023-05-23T17:46:41.761Z,22.50
2023-05-23T17:49:08.502Z,16.40
2023-05-23T17:51:35.191Z,18.67
2023-05-23T17:54:04.124Z,21.53
2023-05-23T17:56:31.054Z,20.67
2023-05-23T17:58:58.911Z,22.20
2023-05-23T18:01:26.229Z,21.03
2023-05-23T18:03:54.473Z,20.83
2023-05-23T18:06:21.345Z,18.73
2023-05-23T18:08:48.294Z,19.83
2023-05-23T18:11:14.927Z,28.80
2023-05-23T18:13:42.186Z,19.37
2023-05-23T18:16:09.392Z,17.70
2023-05-23T18:18:36.140Z,17.17
2023-05-23T18:21:02.900Z,24.43
2023-05-23T18:23:29.593Z,23.17
2023-05-23T18:25:56.324Z,20.50
2023-05-23T18:28:23.026Z,16.47
2023-05-23T18:30:49.720Z,21.73
2023-05-23T18:33:16.774Z,19.43
2023-05-23T18:35:43.921Z,19.77
2023-05-23T18:38:10.952Z,25.63
2023-05-23T18:40:37.645Z,18.90
2023-05-23T18:43:04.338Z,17.20
2023-05-23T18:45:31.080Z,17.70
2023-05-23T18:47:58.623Z,19.23
2023-05-23T18:50:26.039Z,16.47
2023-05-23T18:52:52.690Z,20.20
2023-05-23T18:55:20.182Z,17.70
2023-05-23T18:57:46.939Z,19.33
2023-05-23T19:00:14.533Z,20.13
2023-05-23T19:02:44.217Z,21.17
2023-05-23T19:05:12.438Z,20.30
2023-05-23T19:07:39.650Z,21.07
2023-05-23T19:10:06.949Z,19.40
2023-05-23T19:12:33.667Z,30.37
2023-05-23T19:15:01.065Z,16.40
2023-05-23T19:17:27.885Z,25.83
2023-05-23T19:19:54.873Z,22.40
2023-05-23T19:22:21.501Z,22.03
2023-05-23T19:24:48.132Z,16.47
2023-05-23T19:27:16.140Z,19.03
2023-05-23T19:29:42.891Z,24.10
2023-05-23T19:32:09.642Z,26.77
2023-05-23T19:34:36.528Z,21.10
2023-05-23T19:37:03.270Z,23.87
2023-05-23T19:39:29.893Z,23.97
2023-05-23T19:41:56.754Z,19.57
2023-05-23T19:44:23.428Z,18.07
2023-05-23T19:46:50.569Z,22.27
2023-05-23T19:49:17.352Z,20.50
2023-05-23T19:51:44.099Z,21.40
2023-05-23T19:54:11.117Z,21.13
2023-05-23T19:56:39.875Z,25.83
2023-05-23T19:59:06.578Z,18.23
2023-05-23T20:01:33.703Z,27.37
2023-05-23T20:04:00.972Z,21.73
2023-05-23T20:06:27.961Z,21.60
2023-05-23T20:08:54.605Z,25.00
2023-05-23T20:11:22.469Z,21.53
2023-05-23T20:13:49.249Z,32.03
2023-05-23T20:16:16.534Z,16.80
2023-05-23T20:18:43.404Z,19.53
2023-05-23T20:21:10.153Z,23.00
2023-05-23T20:23:36.795Z,18.97
2023-05-23T20:26:03.502Z,19.53
2023-05-23T20:28:30.167Z,16.90
2023-05-23T20:30:56.874Z,24.23
2023-05-23T20:33:23.636Z,22.33
2023-05-23T20:35:50.352Z,20.10
2023-05-23T20:38:20.040Z,20.90
2023-05-23T20:40:50.860Z,17.70
2023-05-23T20:43:20.244Z,20.07
2023-05-23T20:45:46.890Z,24.27
2023-05-23T20:48:13.754Z,24.00
2023-05-23T20:50:40.687Z,20.67
2023-05-23T20:53:07.539Z,24.00
2023-05-23T20:55:38.014Z,18.40
2023-05-23T20:58:04.790Z,22.97
2023-05-23T21:00:31.452Z,28.50
2023-05-23T21:02:58.193Z,17.40
2023-05-23T21:05:25.073Z,18.00
2023-05-23T21:07:51.721Z,18.60
2023-05-23T21:10:18.453Z,22.40
2023-05-23T21:12:50.042Z,29.60
2023-05-23T21:15:17.627Z,21.57
2023-05-23T21:17:44.476Z,23.53
2023-05-23T21:20:12.011Z,20.93
2023-05-23T21:22:38.944Z,25.50
2023-05-23T21:25:06.036Z,20.13
2023-05-23T21:27:32.709Z,19.27
2023-05-23T21:29:59.357Z,25.17
2023-05-23T21:32:26.030Z,18.13
2023-05-23T21:34:52.713Z,18.13
2023-05-23T21:37:19.343Z,19.07
2023-05-23T21:39:51.749Z,20.53
2023-05-23T21:42:20.036Z,20.93
2023-05-23T21:44:46.749Z,19.50
2023-05-23T21:47:13.505Z,19.33
2023-05-23T21:49:41.373Z,21.40
2023-05-23T21:52:08.250Z,14.20
2023-05-23T21:54:34.962Z,21.53
2023-05-23T21:57:01.798Z,18.90
2023-05-23T21:59:28.471Z,18.53
2023-05-23T22:01:55.177Z,17.53
2023-05-23T22:04:21.983Z,24.37
2023-05-23T22:06:49.504Z,24.70
2023-05-23T22:09:16.241Z,17.67
2023-05-23T22:11:43.238Z,22.77
2023-05-23T22:14:10.628Z,26.77
2023-05-23T22:16:40.549Z,19.20
2023-05-23T22:19:09.900Z,30.63
2023-05-23T22:21:36.823Z,23.93
2023-05-23T22:24:03.735Z,18.40
2023-05-23T22:26:30.640Z,29.03
2023-05-23T22:28:57.368Z,22.10
2023-05-23T22:31:24.351Z,18.03
2023-05-23T22:33:51.336Z,18.90
2023-05-23T22:36:18.093Z,21.20
2023-05-23T22:38:45.032Z,27.63
2023-05-23T22:41:11.852Z,19.93
2023-05-23T22:43:38.694Z,20.07
2023-05-23T22:46:08.781Z,20.93
2023-05-23T22:48:36.784Z,21.70
2023-05-23T22:51:03.930Z,16.23
2023-05-23T22:53:31.112Z,19.23
2023-05-23T22:55:57.779Z,23.27
2023-05-23T22:58:24.452Z,19.57
2023-05-23T23:00:51.384Z,17.40
2023-05-23T23:03:19.717Z,24.07
2023-05-23T23:05:46.660Z,18.23
2023-05-23T23:08:13.464Z,16.87
2023-05-23T23:10:41.638Z,17.50
2023-05-23T23:13:08.582Z,18.90
2023-05-23T23:15:38.533Z,18.90
2023-05-23T23:18:05.821Z,18.75
2023-05-23T23:20:32.988Z,18.57
2023-05-23T23:22:59.975Z,24.33
2023-05-23T23:25:26.850Z,16.20
2023-05-23T23:27:53.497Z,19.00
2023-05-23T23:30:20.403Z,17.15
2023-05-23T23:32:47.203Z,27.50
2023-05-23T23:35:14.142Z,18.55
2023-05-23T23:37:40.901Z,15.60
2023-05-23T23:40:08.618Z,18.17
2023-05-23T23:42:35.334Z,16.77
2023-05-23T23:45:02.200Z,14.13
2023-05-23T23:47:28.914Z,14.30
2023-05-23T23:49:55.677Z,17.10
2023-05-23T23:52:22.313Z,15.55
2023-05-23T23:54:48.938Z,14.33
2023-05-23T23:57:15.681Z,18.17
2023-05-23T23:59:42.975Z,15.95
